Terminal Aerodrome Forecast
Issued by NWS

Home | Current Version | Previous Version | Text Only | Print | Product List | Glossary On
Versions: 1 2 3 4 5 6 7 8 9 10 11 12 13 14 15 16 17 18
000
FTAK31 PAJN 202325
TAFAPG
TAF
PAPG 202325Z 2100/2124 06005KT P6SM FEW005 FEW010
      TEMPO 2100/2103 2SM BR BKN004
     FM210500 00000KT 2SM BR BKN004 OVC015
     FM210900 00000KT 1/2SM FG OVC003
     FM212100 07006KT 5SM BR BKN008 BKN100
      AMD LTD TO CLD VIS AND WIND 2106/2115=

USA.gov is the U.S. government's official web portal to all federal, state and local government web resources and services.